createdAt,value
2019-06-20T00:02:49.515Z,19.3
2019-06-20T00:12:59.785Z,19.2
2019-06-20T00:22:47.979Z,19.2
2019-06-20T00:32:47.223Z,19.1
2019-06-20T00:42:46.509Z,19.1
2019-06-20T00:52:45.702Z,19.1
2019-06-20T01:02:44.931Z,19
2019-06-20T01:12:44.166Z,19.1
2019-06-20T01:22:43.406Z,19
2019-06-20T01:32:42.631Z,18.9
2019-06-20T01:42:41.867Z,18.9
2019-06-20T01:52:41.105Z,18.8
2019-06-20T02:02:40.350Z,18.8
2019-06-20T02:12:39.577Z,18.6
2019-06-20T02:22:38.808Z,18.6
2019-06-20T02:32:38.050Z,18.6
2019-06-20T02:42:37.290Z,18.6
2019-06-20T02:52:36.519Z,18.8
2019-06-20T03:02:35.749Z,18.8
2019-06-20T03:12:34.981Z,18.8
2019-06-20T03:22:34.216Z,19
2019-06-20T03:32:33.465Z,19.3
2019-06-20T03:42:32.688Z,19.8
2019-06-20T03:52:31.921Z,20.3
2019-06-20T04:02:31.167Z,20.8
2019-06-20T04:12:30.400Z,21.3
2019-06-20T04:22:29.639Z,21.6
2019-06-20T04:32:28.866Z,21.6
2019-06-20T04:42:28.112Z,22.2
2019-06-20T04:52:27.346Z,22.8
2019-06-20T05:02:26.580Z,23.5
2019-06-20T05:12:25.810Z,24.3
2019-06-20T05:22:25.055Z,24.7
2019-06-20T05:32:24.295Z,25
2019-06-20T05:42:23.519Z,25.2
2019-06-20T05:52:22.772Z,25.7
2019-06-20T06:02:22.156Z,26.3
2019-06-20T06:12:21.234Z,26.9
2019-06-20T06:22:20.463Z,27.4
2019-06-20T06:32:20.214Z,27.9
2019-06-20T06:42:18.935Z,28.5
2019-06-20T06:52:18.185Z,28.8
2019-06-20T07:02:17.430Z,29.3
2019-06-20T07:12:16.653Z,29.3
2019-06-20T07:22:15.885Z,29.7
2019-06-20T07:32:15.128Z,30.5
2019-06-20T07:42:14.363Z,30.3
2019-06-20T07:52:13.600Z,30.2
2019-06-20T08:02:12.836Z,30.6
2019-06-20T08:12:12.074Z,31.1
2019-06-20T08:22:11.313Z,31.6
2019-06-20T08:32:10.555Z,32.1
2019-06-20T08:42:09.790Z,32.1
2019-06-20T08:52:09.027Z,32.4
2019-06-20T09:02:08.324Z,32.4
2019-06-20T09:12:07.509Z,32.2
2019-06-20T09:22:06.738Z,32.1
2019-06-20T09:32:05.974Z,31.8
2019-06-20T09:42:05.293Z,31.4
2019-06-20T09:52:04.462Z,31.3
2019-06-20T10:02:03.709Z,31.6
2019-06-20T10:12:02.933Z,31.5
2019-06-20T10:22:02.175Z,31.4
2019-06-20T10:32:01.399Z,31.3
2019-06-20T10:42:00.638Z,31.6
2019-06-20T10:51:59.878Z,31.8
2019-06-20T11:01:59.118Z,31.6
2019-06-20T11:11:58.358Z,31.9
2019-06-20T11:21:57.584Z,31.4
2019-06-20T11:31:56.822Z,30.3
2019-06-20T11:41:56.068Z,29.8
2019-06-20T11:51:55.312Z,29.5
2019-06-20T12:01:54.601Z,28.7
2019-06-20T12:11:53.770Z,27.6
2019-06-20T12:21:53.006Z,26.6
2019-06-20T12:31:52.898Z,25.5
2019-06-20T12:41:51.832Z,24.4
2019-06-20T12:51:51.078Z,23.8
2019-06-20T13:01:51.120Z,23.6
2019-06-20T13:11:49.553Z,22.8
2019-06-20T13:21:48.781Z,21.4
2019-06-20T13:32:01.435Z,20.6
2019-06-20T21:13:01.163Z,20
2019-06-20T21:23:00.342Z,19.9
2019-06-20T21:32:59.579Z,19.8
2019-06-20T21:42:58.816Z,19.6
2019-06-20T21:52:58.054Z,19.6
2019-06-20T22:02:57.302Z,19.4
2019-06-20T22:12:56.585Z,19.4
2019-06-20T22:22:55.950Z,19.4
2019-06-20T22:32:55.218Z,19.3
2019-06-20T22:42:54.525Z,19.3
2019-06-20T22:52:53.836Z,19.3
2019-06-20T23:02:53.152Z,19.1
2019-06-20T23:12:52.393Z,19
2019-06-20T23:22:51.626Z,18.9
2019-06-20T23:32:50.862Z,18.9
2019-06-20T23:42:50.096Z,18.8
2019-06-20T23:52:49.342Z,18.8
